Time;durP1;ratioP1;P1;durP2;ratioP2;P2;SDS_P1;SDS_P2;PMS_P1;PMS_P2;Temp;Humidity;BMP_temperature;BMP_pressure;BME280_temperature;BME280_humidity;BME280_pressure;Samples;Min_cycle;Max_cycle;Signal;HPM_P1;HPM_P2
2021/04/03 00:00:16;;;;;;;19.95;6.13;;;5.70;99.90;;;;;;5118592;28;20196;-37
2021/04/03 00:02:44;;;;;;;16.67;6.57;;;5.70;99.90;;;;;;5117214;28;20216;-33
2021/04/03 00:05:13;;;;;;;22.20;6.82;;;5.70;99.90;;;;;;5112588;28;20705;-35
2021/04/03 00:07:40;;;;;;;20.38;6.65;;;5.70;99.90;;;;;;5119339;27;20274;-37
2021/04/03 00:10:11;;;;;;;22.50;6.90;;;5.70;99.90;;;;;;5120735;28;20189;-34
2021/04/03 00:12:38;;;;;;;20.83;5.50;;;5.70;99.90;;;;;;5107837;28;20236;-33
2021/04/03 00:15:06;;;;;;;14.32;5.90;;;5.70;99.90;;;;;;5111507;28;20208;-35
2021/04/03 00:17:33;;;;;;;16.45;6.03;;;5.80;99.90;;;;;;5113311;28;20213;-36
2021/04/03 00:20:01;;;;;;;23.85;6.10;;;5.80;99.90;;;;;;5106448;28;20193;-33
2021/04/03 00:22:27;;;;;;;17.67;5.72;;;5.90;99.90;;;;;;5107463;28;20620;-34
2021/04/03 00:24:54;;;;;;;26.83;5.93;;;5.90;99.90;;;;;;5107448;28;20599;-33
2021/04/03 00:27:21;;;;;;;15.57;6.65;;;5.90;99.90;;;;;;5107658;28;20221;-37
2021/04/03 00:29:48;;;;;;;25.23;5.80;;;5.90;99.90;;;;;;5107155;28;20201;-33
2021/04/03 00:32:14;;;;;;;24.33;7.60;;;5.90;99.90;;;;;;5107191;28;20193;-34
2021/04/03 00:34:41;;;;;;;20.35;5.68;;;5.90;99.90;;;;;;5107188;28;20209;-34
2021/04/03 00:37:08;;;;;;;18.15;6.15;;;5.90;99.90;;;;;;5117289;28;20208;-36
2021/04/03 00:39:35;;;;;;;20.85;5.78;;;5.80;99.90;;;;;;5111191;28;20196;-35
2021/04/03 00:42:13;;;;;;;17.42;5.15;;;5.80;99.90;;;;;;5104584;28;20194;-36
2021/04/03 00:44:44;;;;;;;16.95;4.85;;;6.00;99.90;;;;;;5106852;28;20212;-35
2021/04/03 00:47:11;;;;;;;14.18;4.78;;;5.80;99.90;;;;;;5089127;28;20271;-35
2021/04/03 00:49:38;;;;;;;17.02;4.53;;;5.70;99.90;;;;;;5107497;28;20190;-33
2021/04/03 00:52:08;;;;;;;17.92;5.32;;;5.60;99.90;;;;;;5088883;28;20288;-34
2021/04/03 00:54:36;;;;;;;18.20;5.80;;;5.50;99.90;;;;;;5106554;28;20193;-34
2021/04/03 00:57:04;;;;;;;23.23;4.78;;;5.30;99.90;;;;;;5074528;28;20225;-36
2021/04/03 00:59:32;;;;;;;13.77;4.28;;;5.30;99.90;;;;;;5075405;28;20201;-34
2021/04/03 01:01:59;;;;;;;9.70;4.13;;;5.40;99.90;;;;;;5075153;28;20223;-37
2021/04/03 01:04:27;;;;;;;11.43;4.13;;;5.30;99.90;;;;;;5075019;28;20217;-35
2021/04/03 01:06:55;;;;;;;16.98;5.25;;;5.30;99.90;;;;;;5075433;28;20217;-36
2021/04/03 01:09:24;;;;;;;17.80;4.72;;;5.10;99.90;;;;;;5075187;28;20194;-35
2021/04/03 01:12:01;;;;;;;14.93;5.25;;;5.20;99.90;;;;;;5075595;28;20196;-35
2021/04/03 01:14:36;;;;;;;17.63;5.80;;;5.20;99.90;;;;;;5075026;28;20200;-35
2021/04/03 01:17:10;;;;;;;25.20;5.72;;;5.20;99.90;;;;;;5093005;28;20783;-34
2021/04/03 01:20:08;;;;;;;18.88;4.18;;;5.10;99.90;;;;;;5092803;28;20289;-34
2021/04/03 01:23:01;;;;;;;19.08;4.47;;;5.00;99.90;;;;;;5074696;28;20202;-34
2021/04/03 01:25:44;;;;;;;17.17;5.07;;;5.10;99.90;;;;;;5092525;28;20222;-35
2021/04/03 01:28:42;;;;;;;19.67;5.85;;;4.90;99.90;;;;;;5092578;28;20271;-36
2021/04/03 01:31:12;;;;;;;15.57;4.50;;;5.00;99.90;;;;;;5087469;28;20506;-35
2021/04/03 01:33:46;;;;;;;12.10;4.18;;;5.00;99.90;;;;;;5091147;28;20197;-34
2021/04/03 01:36:17;;;;;;;16.55;4.85;;;4.80;99.90;;;;;;5092559;28;20194;-35
2021/04/03 01:38:50;;;;;;;12.93;4.78;;;4.80;99.90;;;;;;5092636;28;20545;-35
2021/04/03 01:41:24;;;;;;;18.63;5.13;;;4.60;99.90;;;;;;5091004;28;20553;-33
2021/04/03 01:43:53;;;;;;;14.25;4.32;;;4.50;99.90;;;;;;5092178;28;20221;-36
2021/04/03 01:46:31;;;;;;;16.92;4.20;;;4.50;99.90;;;;;;5091053;28;20209;-34
2021/04/03 01:49:04;;;;;;;14.98;4.93;;;4.50;99.90;;;;;;5092279;28;20194;-36
2021/04/03 01:51:34;;;;;;;18.65;5.68;;;4.50;99.90;;;;;;5090869;28;20190;-35
2021/04/03 01:54:03;;;;;;;7.68;4.68;;;4.60;99.90;;;;;;5090782;28;20634;-35
2021/04/03 01:56:31;;;;;;;15.50;4.13;;;4.70;99.90;;;;;;5092291;28;20281;-34
2021/04/03 01:58:59;;;;;;;19.02;4.00;;;4.60;99.90;;;;;;5091089;28;20202;-35
2021/04/03 02:01:30;;;;;;;13.15;5.38;;;4.60;99.90;;;;;;5090715;28;20194;-38
2021/04/03 02:04:00;;;;;;;24.38;5.85;;;4.60;99.90;;;;;;5090828;28;20225;-35
2021/04/03 02:06:28;;;;;;;18.73;4.60;;;4.50;99.90;;;;;;5096335;28;20247;-35
2021/04/03 02:09:10;;;;;;;13.38;4.05;;;4.50;99.90;;;;;;5082985;28;20198;-33
2021/04/03 02:11:52;;;;;;;8.40;4.35;;;4.50;99.90;;;;;;5088562;28;20212;-37
2021/04/03 02:14:44;;;;;;;18.95;4.72;;;4.40;99.90;;;;;;5073364;28;20210;-34
2021/04/03 02:17:18;;;;;;;12.68;4.38;;;4.40;99.90;;;;;;5104703;28;20220;-36
2021/04/03 02:19:46;;;;;;;17.33;4.90;;;4.20;99.90;;;;;;5095413;28;20205;-37
2021/04/03 02:22:17;;;;;;;19.63;6.05;;;4.10;99.90;;;;;;5090888;28;20194;-35
2021/04/03 02:24:48;;;;;;;13.23;4.28;;;4.10;99.90;;;;;;5072927;28;20214;-35
2021/04/03 02:27:17;;;;;;;12.93;6.13;;;4.00;99.90;;;;;;5093636;28;20217;-35
2021/04/03 02:29:45;;;;;;;20.75;5.78;;;3.90;99.90;;;;;;5100241;28;20243;-34
2021/04/03 02:32:13;;;;;;;18.38;4.75;;;4.00;99.90;;;;;;5088120;28;20221;-34
2021/04/03 02:34:41;;;;;;;16.90;3.67;;;4.10;99.90;;;;;;5072812;28;20479;-34
2021/04/03 02:37:08;;;;;;;21.95;5.07;;;4.30;99.90;;;;;;5091554;28;20206;-35
2021/04/03 02:39:38;;;;;;;20.10;5.38;;;4.30;99.90;;;;;;5073377;28;20198;-35
2021/04/03 02:42:11;;;;;;;18.45;4.93;;;4.30;99.90;;;;;;5098581;28;20194;-37
2021/04/03 02:44:44;;;;;;;16.50;4.45;;;4.30;99.90;;;;;;5092525;28;20220;-36
2021/04/03 02:47:16;;;;;;;24.45;4.85;;;4.30;99.90;;;;;;5090816;28;20218;-36
2021/04/03 02:49:53;;;;;;;15.90;5.43;;;4.30;99.90;;;;;;5090085;28;20681;-36
2021/04/03 02:52:23;;;;;;;19.05;4.50;;;4.30;99.90;;;;;;5089754;28;20194;-34
2021/04/03 02:54:51;;;;;;;17.13;4.85;;;4.40;99.90;;;;;;5091078;28;20198;-38
2021/04/03 02:57:20;;;;;;;18.75;4.80;;;4.50;99.90;;;;;;5091159;28;20233;-35
2021/04/03 02:59:52;;;;;;;13.85;4.32;;;4.40;99.90;;;;;;5091505;28;20200;-35
2021/04/03 03:02:23;;;;;;;12.63;4.28;;;4.40;99.90;;;;;;5089779;28;20676;-35
2021/04/03 03:04:51;;;;;;;14.15;4.82;;;4.50;99.90;;;;;;5089770;28;20292;-33
2021/04/03 03:07:21;;;;;;;16.42;5.65;;;4.50;99.90;;;;;;5091130;28;20234;-36
2021/04/03 03:09:50;;;;;;;23.17;5.13;;;4.40;99.90;;;;;;5091012;28;20262;-35
2021/04/03 03:12:21;;;;;;;13.60;4.60;;;4.40;99.90;;;;;;5089393;28;20194;-35
2021/04/03 03:14:49;;;;;;;17.95;5.43;;;4.40;99.90;;;;;;5089362;28;20558;-33
2021/04/03 03:17:17;;;;;;;8.20;4.82;;;4.40;99.90;;;;;;5086819;28;20225;-35
2021/04/03 03:19:49;;;;;;;26.55;5.07;;;4.40;99.90;;;;;;5066453;28;20194;-38
2021/04/03 03:22:18;;;;;;;20.58;5.10;;;4.30;99.90;;;;;;5090305;28;20202;-35
2021/04/03 03:24:46;;;;;;;13.55;4.47;;;4.30;99.90;;;;;;5099629;28;20217;-35
2021/04/03 03:27:15;;;;;;;20.30;5.75;;;4.40;99.90;;;;;;5101882;28;20750;-36
2021/04/03 03:29:43;;;;;;;23.30;5.05;;;4.40;99.90;;;;;;5090787;28;20254;-36
2021/04/03 03:32:10;;;;;;;17.35;5.55;;;4.20;99.90;;;;;;5089114;28;20190;-37
2021/04/03 03:34:44;;;;;;;27.90;7.65;;;4.20;99.90;;;;;;5089411;28;20220;-37
2021/04/03 03:37:12;;;;;;;19.85;5.43;;;4.40;99.90;;;;;;5090282;28;20232;-35
2021/04/03 03:39:51;;;;;;;23.90;7.25;;;4.60;99.90;;;;;;5090590;28;20194;-38
2021/04/03 03:42:21;;;;;;;31.45;9.13;;;4.70;99.90;;;;;;5090266;28;20246;-37
2021/04/03 03:44:49;;;;;;;31.45;7.70;;;4.80;99.90;;;;;;5089123;28;20267;-33
2021/04/03 03:47:18;;;;;;;26.73;7.30;;;4.90;99.90;;;;;;5089221;28;20271;-37
2021/04/03 03:49:48;;;;;;;27.42;7.32;;;5.00;99.90;;;;;;5089469;28;20183;-36
2021/04/03 03:52:15;;;;;;;19.88;6.75;;;4.90;99.90;;;;;;5090429;28;20202;-35
2021/04/03 03:54:43;;;;;;;17.13;6.65;;;4.90;99.90;;;;;;5089333;28;20273;-34
2021/04/03 03:57:12;;;;;;;25.10;7.47;;;4.90;99.90;;;;;;5089304;28;20304;-33
2021/04/03 03:59:39;;;;;;;29.70;8.15;;;4.80;99.90;;;;;;5080015;28;20722;-34
2021/04/03 04:02:07;;;;;;;22.42;7.82;;;4.80;99.90;;;;;;5086700;28;20205;-34
2021/04/03 04:04:35;;;;;;;27.98;8.63;;;4.80;99.90;;;;;;5083794;28;20647;-34
2021/04/03 04:07:07;;;;;;;22.55;7.03;;;4.80;99.90;;;;;;5089910;28;20222;-35
2021/04/03 04:09:36;;;;;;;33.63;9.38;;;4.80;99.90;;;;;;5067150;28;20236;-34
2021/04/03 04:12:05;;;;;;;23.08;7.32;;;4.80;99.90;;;;;;5068826;28;20289;-35
2021/04/03 04:14:35;;;;;;;27.50;7.75;;;4.70;99.90;;;;;;5071705;28;20235;-34
2021/04/03 04:17:03;;;;;;;24.67;9.13;;;4.70;99.90;;;;;;5090165;28;20709;-33
2021/04/03 04:19:34;;;;;;;27.08;8.75;;;4.80;99.90;;;;;;5072267;28;20198;-37
2021/04/03 04:22:05;;;;;;;21.60;8.05;;;4.80;99.90;;;;;;5071965;28;20194;-34
2021/04/03 04:24:33;;;;;;;26.95;8.60;;;4.80;99.90;;;;;;5089741;28;20665;-35
2021/04/03 04:27:03;;;;;;;32.47;10.13;;;4.80;99.90;;;;;;5072056;28;20271;-34
2021/04/03 04:29:34;;;;;;;23.13;8.25;;;5.00;99.90;;;;;;5090201;28;20273;-36
2021/04/03 04:32:03;;;;;;;29.40;9.15;;;4.80;99.90;;;;;;5091803;28;20272;-36
2021/04/03 04:34:33;;;;;;;40.35;8.80;;;4.80;99.90;;;;;;5093761;28;20275;-37
2021/04/03 04:37:03;;;;;;;30.70;8.93;;;4.90;99.90;;;;;;5091149;28;20210;-35
2021/04/03 04:39:37;;;;;;;39.28;11.15;;;4.80;99.90;;;;;;5093698;28;20198;-37
2021/04/03 04:42:10;;;;;;;27.77;9.93;;;4.80;99.90;;;;;;5093391;28;20202;-36
2021/04/03 04:44:44;;;;;;;29.50;10.57;;;4.90;99.90;;;;;;5092934;28;20267;-38
2021/04/03 04:47:11;;;;;;;32.17;11.00;;;4.90;99.90;;;;;;5105575;28;20221;-37
2021/04/03 04:49:38;;;;;;;28.55;9.77;;;4.90;99.90;;;;;;5099349;28;20301;-35
2021/04/03 04:52:06;;;;;;;31.02;10.38;;;5.00;99.90;;;;;;5092326;28;20385;-34
2021/04/03 04:54:36;;;;;;;25.38;9.68;;;4.80;99.90;;;;;;5092323;28;20209;-35
2021/04/03 04:57:08;;;;;;;21.20;10.65;;;4.80;99.90;;;;;;5092248;28;20225;-35
2021/04/03 04:59:44;;;;;;;29.92;11.27;;;4.60;99.90;;;;;;5092075;28;20214;-36
2021/04/03 05:02:17;;;;;;;22.25;9.18;;;4.80;99.90;;;;;;5091793;28;20205;-35
2021/04/03 05:04:43;;;;;;;32.00;11.18;;;4.70;99.90;;;;;;5093063;28;20226;-35
2021/04/03 05:07:10;;;;;;;31.55;9.95;;;4.70;99.90;;;;;;5093107;28;20834;-36
2021/04/03 05:09:37;;;;;;;29.75;9.23;;;4.70;99.90;;;;;;5093346;28;20676;-35
2021/04/03 05:12:04;;;;;;;33.67;10.25;;;4.80;99.90;;;;;;5093292;28;20244;-34
2021/04/03 05:14:31;;;;;;;28.48;10.65;;;4.80;99.90;;;;;;5092948;28;20252;-36
2021/04/03 05:16:59;;;;;;;33.03;9.90;;;4.80;99.90;;;;;;5092933;28;20224;-33
2021/04/03 05:19:26;;;;;;;36.70;11.27;;;4.80;99.90;;;;;;5092969;28;20290;-35
2021/04/03 05:21:52;;;;;;;32.03;12.00;;;4.80;99.90;;;;;;5092604;28;20229;-35
2021/04/03 05:24:19;;;;;;;34.65;11.52;;;4.90;99.90;;;;;;5091319;28;20218;-34
2021/04/03 05:26:46;;;;;;;39.80;11.93;;;4.90;99.90;;;;;;5074152;28;20237;-36
2021/04/03 05:29:13;;;;;;;35.22;10.85;;;5.00;99.90;;;;;;5092555;28;20202;-35
2021/04/03 05:31:39;;;;;;;36.00;12.63;;;5.00;99.90;;;;;;5097248;28;20193;-34
2021/04/03 05:34:07;;;;;;;44.10;13.13;;;5.20;99.90;;;;;;5095265;28;20272;-37
2021/04/03 05:36:34;;;;;;;31.90;11.65;;;5.30;99.90;;;;;;5091100;28;20226;-34
2021/04/03 05:39:01;;;;;;;47.35;12.75;;;5.30;99.90;;;;;;5098938;28;20687;-37
2021/04/03 05:41:27;;;;;;;29.08;11.68;;;5.30;99.90;;;;;;5098551;28;20194;-35
2021/04/03 05:43:56;;;;;;;38.85;12.50;;;5.10;99.90;;;;;;5092220;28;20202;-33
2021/04/03 05:46:24;;;;;;;31.85;12.48;;;5.10;99.90;;;;;;5092456;28;20248;-35
2021/04/03 05:48:51;;;;;;;32.15;11.98;;;5.20;99.90;;;;;;5092609;28;20320;-35
2021/04/03 05:51:19;;;;;;;30.92;12.77;;;5.30;99.90;;;;;;5092388;28;20221;-35
2021/04/03 05:53:46;;;;;;;34.05;13.00;;;5.30;99.90;;;;;;5091855;28;20200;-34
2021/04/03 05:56:14;;;;;;;37.70;13.20;;;5.20;99.90;;;;;;5092594;28;20802;-35
2021/04/03 05:58:41;;;;;;;35.53;12.27;;;5.30;99.90;;;;;;5105500;22;20320;-35
2021/04/03 06:01:08;;;;;;;29.73;12.23;;;5.30;99.90;;;;;;5091424;28;20194;-36
2021/04/03 06:03:35;;;;;;;37.85;13.85;;;5.30;99.90;;;;;;5092112;28;20576;-35
2021/04/03 06:06:03;;;;;;;30.80;12.05;;;5.40;99.90;;;;;;5092087;28;20229;-36
2021/04/03 06:08:32;;;;;;;31.48;11.95;;;5.40;99.90;;;;;;5097373;28;20213;-36
2021/04/03 06:11:12;;;;;;;20.40;9.90;;;5.40;99.90;;;;;;5107930;28;20202;-36
2021/04/03 06:13:39;;;;;;;22.85;9.77;;;5.60;99.90;;;;;;5103464;28;20211;-35
2021/04/03 06:16:27;;;;;;;33.80;13.05;;;5.60;99.90;;;;;;5084143;28;20198;-35
2021/04/03 06:19:17;;;;;;;29.35;11.43;;;5.60;99.90;;;;;;5100856;28;20324;-36
2021/04/03 06:21:46;;;;;;;34.28;12.05;;;5.50;99.90;;;;;;5106540;28;20233;-36
2021/04/03 06:24:21;;;;;;;32.88;10.73;;;5.50;99.90;;;;;;5105854;28;20225;-35
2021/04/03 06:26:53;;;;;;;36.13;12.57;;;5.50;99.90;;;;;;5101553;28;20255;-35
2021/04/03 06:29:29;;;;;;;27.45;11.82;;;5.60;99.90;;;;;;5096050;28;20190;-37
2021/04/03 06:31:58;;;;;;;35.45;11.35;;;5.70;99.90;;;;;;5109210;28;20261;-35
2021/04/03 06:34:29;;;;;;;31.40;10.93;;;5.80;99.90;;;;;;5112717;28;20185;-35
2021/04/03 06:36:56;;;;;;;27.35;11.40;;;5.80;99.90;;;;;;5112255;28;20483;-35
2021/04/03 06:39:24;;;;;;;39.45;12.35;;;5.90;99.90;;;;;;5112410;28;20739;-36
2021/04/03 06:41:51;;;;;;;24.38;11.75;;;6.00;99.90;;;;;;5112089;28;20208;-35
2021/04/03 06:44:18;;;;;;;35.45;11.20;;;6.20;99.90;;;;;;5093858;28;20217;-35
2021/04/03 06:46:49;;;;;;;34.53;13.00;;;6.20;99.90;;;;;;5093797;28;20194;-35
2021/04/03 06:49:19;;;;;;;33.17;12.23;;;6.20;99.90;;;;;;5093692;28;20201;-36
2021/04/03 06:51:46;;;;;;;29.00;11.93;;;6.30;99.90;;;;;;5111503;28;20204;-35
2021/04/03 06:54:14;;;;;;;30.92;13.23;;;6.00;99.90;;;;;;5102581;28;20205;-36
2021/04/03 06:56:42;;;;;;;26.63;10.82;;;6.00;99.90;;;;;;5107069;28;20247;-43
2021/04/03 06:59:10;;;;;;;24.42;9.90;;;6.20;99.90;;;;;;5097543;28;20358;-36
2021/04/03 07:01:45;;;;;;;31.88;11.35;;;6.50;99.90;;;;;;5091247;28;20281;-35
2021/04/03 07:04:26;;;;;;;26.70;11.68;;;6.70;99.90;;;;;;5093443;28;20483;-35
2021/04/03 07:06:54;;;;;;;25.48;12.05;;;6.80;99.90;;;;;;5097827;28;20185;-36
2021/04/03 07:09:21;;;;;;;31.50;11.15;;;6.70;99.90;;;;;;5091014;28;20228;-36
2021/04/03 07:11:50;;;;;;;34.70;11.68;;;6.80;99.90;;;;;;5090856;28;20218;-36
2021/04/03 07:14:19;;;;;;;24.58;9.27;;;6.60;99.90;;;;;;5090803;28;20599;-35
2021/04/03 07:16:48;;;;;;;28.70;10.43;;;6.60;99.90;;;;;;5091138;28;20683;-35
2021/04/03 07:19:16;;;;;;;24.20;10.82;;;6.60;99.90;;;;;;5091763;28;20190;-35
2021/04/03 07:21:44;;;;;;;22.35;9.60;;;6.70;99.90;;;;;;5091064;28;20228;-36
2021/04/03 07:24:12;;;;;;;19.80;10.32;;;6.80;99.90;;;;;;5090827;28;20230;-35
2021/04/03 07:26:43;;;;;;;25.10;12.07;;;6.70;99.90;;;;;;5093765;28;20208;-38
2021/04/03 07:29:43;;;;;;;22.10;10.55;;;6.80;99.90;;;;;;5103265;28;20244;-35
2021/04/03 07:32:37;;;;;;;29.45;11.10;;;7.10;99.90;;;;;;5099519;28;20205;-36
2021/04/03 07:35:15;;;;;;;21.80;9.55;;;7.20;99.90;;;;;;5102583;28;20197;-35
2021/04/03 07:37:43;;;;;;;22.58;10.27;;;7.60;99.90;;;;;;5100859;28;20221;-35
2021/04/03 07:40:14;;;;;;;21.77;9.38;;;7.60;99.90;;;;;;5098777;28;20200;-36
2021/04/03 07:42:42;;;;;;;25.27;10.40;;;7.70;99.90;;;;;;5098015;28;20206;-35
2021/04/03 07:45:41;;;;;;;20.88;10.15;;;7.90;99.90;;;;;;5102598;28;20213;-36
2021/04/03 07:48:14;;;;;;;21.52;10.70;;;7.80;99.90;;;;;;5105928;28;20307;-35
2021/04/03 07:50:51;;;;;;;22.25;10.43;;;7.70;99.90;;;;;;5102283;28;20198;-36
2021/04/03 07:53:34;;;;;;;25.92;9.43;;;7.70;99.90;;;;;;5082810;28;20196;-35
2021/04/03 07:56:02;;;;;;;21.35;10.40;;;7.90;99.90;;;;;;5102527;28;20221;-36
2021/04/03 07:58:30;;;;;;;24.83;11.75;;;7.70;99.90;;;;;;5103677;28;20226;-36
2021/04/03 08:00:59;;;;;;;21.42;9.95;;;7.70;99.90;;;;;;5099911;28;20251;-36
2021/04/03 08:03:29;;;;;;;22.13;9.77;;;7.80;99.90;;;;;;5101454;28;20546;-36
2021/04/03 08:06:02;;;;;;;24.50;10.20;;;7.90;99.90;;;;;;5106552;28;20213;-36
2021/04/03 08:08:30;;;;;;;24.23;9.82;;;7.90;99.90;;;;;;5100647;28;20305;-36
2021/04/03 08:11:08;;;;;;;24.17;10.15;;;8.10;99.90;;;;;;5094594;28;20221;-35
2021/04/03 08:13:37;;;;;;;27.77;11.05;;;8.00;99.90;;;;;;5076498;28;20202;-35
2021/04/03 08:16:05;;;;;;;23.55;11.68;;;8.10;99.90;;;;;;5099102;28;20197;-37
2021/04/03 08:18:34;;;;;;;21.80;10.02;;;8.20;99.90;;;;;;5108040;28;20213;-35
2021/04/03 08:21:01;;;;;;;22.75;9.35;;;8.20;99.90;;;;;;5110936;28;20196;-35
2021/04/03 08:23:34;;;;;;;22.13;10.35;;;8.00;99.90;;;;;;5103099;28;20205;-35
2021/04/03 08:26:01;;;;;;;23.02;8.73;;;8.00;99.90;;;;;;5109851;28;20221;-35
2021/04/03 08:28:28;;;;;;;23.35;10.75;;;8.10;99.90;;;;;;5103766;28;20209;-36
2021/04/03 08:30:55;;;;;;;19.27;9.15;;;8.00;99.90;;;;;;5102300;28;20247;-36
2021/04/03 08:33:21;;;;;;;24.20;10.98;;;8.30;99.90;;;;;;5101551;28;20208;-38
2021/04/03 08:35:50;;;;;;;27.77;11.52;;;8.50;99.90;;;;;;5096260;28;20285;-36
2021/04/03 08:38:21;;;;;;;24.05;10.25;;;8.70;99.90;;;;;;5103494;28;20221;-35
2021/04/03 08:40:49;;;;;;;25.67;11.18;;;8.50;99.90;;;;;;5110977;28;20247;-36
2021/04/03 08:43:21;;;;;;;21.55;9.88;;;8.40;99.90;;;;;;5096948;28;20198;-36
2021/04/03 08:45:48;;;;;;;19.67;9.98;;;8.50;99.90;;;;;;5104652;28;20267;-37
2021/04/03 08:48:15;;;;;;;25.20;9.60;;;8.70;99.90;;;;;;5097403;28;20231;-40
2021/04/03 08:50:44;;;;;;;18.13;8.45;;;8.80;99.90;;;;;;5100654;28;20255;-37
2021/04/03 08:53:12;;;;;;;15.77;7.50;;;9.00;99.90;;;;;;5100719;28;20202;-36
2021/04/03 08:55:38;;;;;;;21.73;8.57;;;8.90;99.90;;;;;;5103885;28;20254;-38
2021/04/03 08:58:06;;;;;;;19.38;11.05;;;8.90;99.90;;;;;;5105565;28;20652;-37
2021/04/03 09:00:39;;;;;;;36.20;11.57;;;8.90;99.90;;;;;;5117666;22;20234;-82
2021/04/03 09:03:13;;;;;;;23.33;11.50;;;9.10;99.90;;;;;;5063354;28;20206;-84
2021/04/03 09:05:52;;;;;;;25.92;10.68;;;8.90;99.90;;;;;;5095565;28;20226;-86
2021/04/03 09:08:27;;;;;;;27.35;10.50;;;9.00;99.90;;;;;;5106181;28;20228;-84
2021/04/03 09:10:55;;;;;;;17.58;9.57;;;9.10;99.90;;;;;;5111419;28;20201;-85
2021/04/03 09:13:22;;;;;;;15.73;6.47;;;8.90;99.90;;;;;;5097927;22;20995;-36
2021/04/03 09:15:49;;;;;;;12.43;7.03;;;9.20;99.90;;;;;;5051186;28;20548;-35
2021/04/03 09:18:16;;;;;;;18.73;7.82;;;9.40;99.90;;;;;;5051535;28;20196;-35
2021/04/03 09:20:47;;;;;;;16.05;9.48;;;9.50;99.90;;;;;;5052804;28;20696;-35
2021/04/03 09:23:14;;;;;;;24.77;9.32;;;9.70;99.90;;;;;;5053519;28;20218;-37
2021/04/03 09:25:44;;;;;;;20.77;9.27;;;9.80;99.90;;;;;;5076566;22;20232;-33
2021/04/03 09:28:12;;;;;;;18.40;10.55;;;9.80;99.90;;;;;;5082858;28;20676;-34
2021/04/03 09:30:41;;;;;;;30.48;10.90;;;9.70;99.90;;;;;;5084047;28;20349;-33
2021/04/03 09:33:22;;;;;;;17.88;8.60;;;9.90;99.90;;;;;;5066726;28;20272;-33
2021/04/03 09:35:49;;;;;;;20.17;10.52;;;10.00;99.90;;;;;;5080607;28;20218;-35
2021/04/03 09:38:27;;;;;;;24.30;10.02;;;10.10;99.90;;;;;;5051466;28;20236;-34
2021/04/03 09:40:55;;;;;;;16.27;10.05;;;10.10;99.90;;;;;;5070460;28;20206;-34
2021/04/03 09:43:39;;;;;;;16.27;8.68;;;10.10;99.90;;;;;;5064439;28;20703;-34
2021/04/03 09:46:06;;;;;;;16.40;9.10;;;10.30;99.90;;;;;;5059279;28;20278;-35
2021/04/03 09:48:33;;;;;;;20.25;10.38;;;10.10;99.90;;;;;;5053764;28;20271;-33
2021/04/03 09:50:59;;;;;;;20.42;10.32;;;10.20;99.90;;;;;;5065783;28;20195;-35
2021/04/03 09:53:29;;;;;;;20.60;9.35;;;10.40;99.90;;;;;;5068325;28;20223;-33
2021/04/03 09:55:57;;;;;;;21.17;10.52;;;10.40;99.90;;;;;;5075080;28;20739;-34
2021/04/03 09:58:24;;;;;;;16.45;8.65;;;10.60;99.90;;;;;;5062395;28;20274;-34
2021/04/03 10:00:52;;;;;;;16.80;10.25;;;10.60;99.90;;;;;;5051961;28;20232;-35
2021/04/03 10:03:19;;;;;;;15.30;7.95;;;10.60;99.90;;;;;;5060450;28;20194;-35
2021/04/03 10:05:46;;;;;;;13.35;7.50;;;10.50;99.90;;;;;;5058691;28;20250;-32
2021/04/03 10:08:13;;;;;;;15.82;9.23;;;10.60;99.90;;;;;;5052005;28;20211;-32
2021/04/03 10:10:40;;;;;;;9.02;6.13;;;10.80;99.90;;;;;;5062635;28;20195;-34
2021/04/03 10:13:08;;;;;;;13.60;8.40;;;11.10;99.90;;;;;;5051587;28;20195;-33
2021/04/03 10:15:34;;;;;;;17.70;8.65;;;11.10;99.90;;;;;;5058101;28;20291;-33
2021/04/03 10:18:01;;;;;;;22.00;9.40;;;11.00;99.90;;;;;;5051462;28;20571;-33
2021/04/03 10:20:28;;;;;;;23.05;11.68;;;11.10;99.90;;;;;;5065959;28;20203;-34
2021/04/03 10:22:55;;;;;;;15.00;7.60;;;11.00;99.90;;;;;;5061132;28;20302;-34
2021/04/03 10:25:21;;;;;;;14.85;9.27;;;11.20;99.90;;;;;;5059681;28;21956;-35
2021/04/03 10:27:48;;;;;;;16.98;9.55;;;11.60;99.90;;;;;;5054036;28;20199;-36
2021/04/03 10:30:17;;;;;;;22.58;9.75;;;11.80;99.90;;;;;;5056539;28;20278;-33
2021/04/03 10:32:44;;;;;;;19.50;9.68;;;11.60;99.90;;;;;;5062882;28;20244;-35
2021/04/03 10:35:11;;;;;;;22.60;11.32;;;11.40;99.90;;;;;;5066741;28;20298;-33
2021/04/03 10:37:38;;;;;;;14.20;8.88;;;11.40;99.90;;;;;;5061673;28;20658;-34
2021/04/03 10:40:06;;;;;;;18.83;9.13;;;11.50;99.90;;;;;;5061636;28;20216;-35
2021/04/03 10:42:33;;;;;;;19.10;10.30;;;11.90;99.90;;;;;;5065094;28;20219;-33
2021/04/03 10:45:00;;;;;;;15.07;9.70;;;11.80;99.90;;;;;;5058546;28;20701;-34
2021/04/03 10:47:28;;;;;;;13.82;8.68;;;11.80;99.90;;;;;;5061686;28;20705;-34
2021/04/03 10:49:54;;;;;;;14.77;8.52;;;11.90;99.90;;;;;;5066476;28;20206;-33
2021/04/03 10:52:21;;;;;;;16.35;9.00;;;11.60;99.90;;;;;;5068794;28;20202;-34
2021/04/03 10:54:48;;;;;;;22.17;10.18;;;11.40;99.90;;;;;;5066639;28;20187;-37
2021/04/03 10:57:15;;;;;;;16.67;8.35;;;11.60;99.90;;;;;;5071761;28;20206;-34
2021/04/03 10:59:42;;;;;;;15.93;8.75;;;11.80;99.90;;;;;;5066376;28;20210;-33
2021/04/03 11:02:08;;;;;;;14.18;7.60;;;12.00;99.90;;;;;;5059895;28;20209;-34
2021/04/03 11:04:36;;;;;;;11.65;7.30;;;12.00;99.90;;;;;;5060772;28;20219;-33
2021/04/03 11:07:03;;;;;;;15.07;7.22;;;11.80;99.90;;;;;;5059811;28;20336;-33
2021/04/03 11:09:30;;;;;;;17.00;9.35;;;11.90;99.90;;;;;;5065056;28;20217;-32
2021/04/03 11:11:56;;;;;;;14.00;6.90;;;11.90;99.90;;;;;;5074998;28;20202;-33
2021/04/03 11:14:23;;;;;;;12.40;7.45;;;12.00;99.90;;;;;;5071536;28;20206;-33
2021/04/03 11:16:49;;;;;;;10.27;7.50;;;12.00;99.90;;;;;;5057902;28;20222;-34
2021/04/03 11:19:16;;;;;;;18.95;8.07;;;12.10;99.90;;;;;;5058111;28;20195;-34
2021/04/03 11:21:44;;;;;;;16.33;11.18;;;12.30;99.90;;;;;;5061244;28;20202;-37
2021/04/03 11:24:11;;;;;;;15.40;11.38;;;12.40;99.90;;;;;;5064092;28;20207;-34
2021/04/03 11:26:38;;;;;;;10.40;6.15;;;12.40;99.90;;;;;;5068516;28;20227;-32
2021/04/03 11:29:05;;;;;;;13.57;10.00;;;12.30;99.90;;;;;;5069031;28;20195;-33
2021/04/03 11:31:31;;;;;;;8.02;5.75;;;12.50;99.90;;;;;;5051384;28;20835;-33
2021/04/03 11:33:58;;;;;;;12.30;6.63;;;12.80;99.90;;;;;;5064215;28;20255;-33
2021/04/03 11:36:25;;;;;;;10.20;6.43;;;12.70;99.90;;;;;;5049941;28;20219;-33
2021/04/03 11:38:52;;;;;;;7.18;4.10;;;12.60;99.90;;;;;;5066982;28;20276;-33
2021/04/03 11:41:19;;;;;;;8.13;2.78;;;12.80;99.90;;;;;;5076046;28;20248;-33
2021/04/03 11:43:45;;;;;;;4.57;2.60;;;13.10;99.90;;;;;;5069556;28;20574;-33
2021/04/03 11:46:12;;;;;;;3.00;2.13;;;13.10;99.90;;;;;;5072346;28;20666;-33
2021/04/03 11:48:39;;;;;;;3.42;2.17;;;13.20;99.90;;;;;;5062873;28;20458;-32
2021/04/03 11:51:06;;;;;;;2.40;1.90;;;12.70;99.90;;;;;;5050895;28;20242;-33
2021/04/03 11:53:32;;;;;;;2.80;1.55;;;12.40;99.90;;;;;;5030837;28;20275;-34
2021/04/03 11:56:00;;;;;;;4.80;2.40;;;12.80;99.90;;;;;;5049484;28;20583;-33
2021/04/03 11:58:28;;;;;;;4.03;1.52;;;13.80;99.90;;;;;;5066420;28;20215;-32
2021/04/03 12:00:55;;;;;;;5.07;3.65;;;14.70;99.90;;;;;;5066509;28;20199;-33
2021/04/03 12:03:22;;;;;;;5.45;2.75;;;15.50;99.90;;;;;;5069456;28;20202;-32
2021/04/03 12:05:49;;;;;;;2.67;1.70;;;14.80;99.90;;;;;;5070123;28;20292;-33
2021/04/03 12:08:15;;;;;;;3.72;2.50;;;13.90;99.90;;;;;;5070152;28;20670;-33
2021/04/03 12:10:42;;;;;;;1.55;1.40;;;14.20;99.90;;;;;;5070465;28;20673;-32
2021/04/03 12:13:11;;;;;;;3.97;2.28;;;14.50;99.90;;;;;;5070511;28;20198;-35
2021/04/03 12:15:39;;;;;;;5.00;2.05;;;15.00;99.90;;;;;;5069958;28;20225;-33
2021/04/03 12:18:06;;;;;;;2.13;1.48;;;15.80;99.90;;;;;;5071080;28;20195;-33
2021/04/03 12:20:33;;;;;;;3.35;1.60;;;15.60;99.90;;;;;;5071833;28;20271;-35
2021/04/03 12:23:00;;;;;;;4.60;1.80;;;14.40;99.90;;;;;;5072090;28;20313;-34
2021/04/03 12:25:28;;;;;;;2.83;1.60;;;14.10;99.90;;;;;;5071647;28;20218;-34
2021/04/03 12:27:55;;;;;;;3.08;1.90;;;14.00;99.90;;;;;;5071060;28;20294;-35
2021/04/03 12:30:23;;;;;;;2.65;1.83;;;14.60;99.90;;;;;;5073201;28;20241;-35
2021/04/03 12:32:50;;;;;;;2.40;1.45;;;15.50;99.90;;;;;;5071508;28;20703;-34
2021/04/03 12:35:17;;;;;;;2.78;1.77;;;15.90;99.90;;;;;;5067558;28;20316;-33
2021/04/03 12:37:43;;;;;;;3.30;2.25;;;15.20;99.90;;;;;;5052375;28;20253;-36
2021/04/03 12:40:12;;;;;;;5.60;2.03;;;14.50;99.90;;;;;;5034789;28;20204;-37
2021/04/03 12:42:39;;;;;;;3.75;1.92;;;14.80;99.90;;;;;;5052748;28;20638;-36
2021/04/03 12:45:07;;;;;;;2.47;1.70;;;15.10;99.90;;;;;;5054014;28;20242;-34
2021/04/03 12:47:35;;;;;;;2.88;1.88;;;15.00;99.90;;;;;;5054849;28;20257;-35
2021/04/03 12:50:02;;;;;;;1.98;1.77;;;15.00;99.90;;;;;;5052883;28;20637;-36
2021/04/03 12:52:29;;;;;;;2.15;1.60;;;15.30;99.90;;;;;;5052338;28;20195;-35
2021/04/03 12:54:56;;;;;;;2.75;2.47;;;15.40;99.90;;;;;;5052726;28;20306;-35